Main page
Satellite images 15-day forecastsClimateMarine weather Cyclones Lightning AirportsFAQ Newsletter About
Weather : Europe Africa North America South America Asia Australia-Oceania Others
Languages Contact

London-Southend, England

latitude: 51-34N, longitude: 000-42E, elevation: 15 m


METAR: EGMC 190450Z 01008KT 9999 FEW042 SCT049 06/01 Q1018
short-TAF: EGMC 190204Z 1903/1912 01005KT 9999 SCT035 PROB30 1910/1912 8000 -SHRA
long-TAF: missing

Time: 06:03 (05:03 UTC)

Current weather observation

The report was made 13 minutes ago, at 04:50 UTC  
Wind 08 kt from north
Temperature 6°C
Humidity 70%
Pressure 1018 hPa
Visibility 10 km or more
Few clouds at a height of 4200 ft
Scattered clouds at a height of 4900 ft

Change units

Forecast

The report was made 2 hours and 48 minutes ago, at 02:15 UTC  
Forecast valid from 19 at 03 UTC to 19 at 12 UTC
Wind 05 kt from north
Visibility 10 km or more
Scattered clouds at a height of 3500 ft
Probability 30%
from 19 at 10 UTC to 19 at 12 UTC
Visibility 8000 m
light rain showers
The information on this site is subject to a disclaimer
Weather : Europe Africa North America South America Asia Australia-Oceania Others
Satellite images 15-day forecastsClimateMarine weather Cyclones Lightning AirportsFAQ Languages Contact Newsletter About